Flight Track Log - Related Links

Times and Time Zones

All times are in EDT time to prevent confusion due to time zone crossing. See the UCA4793 flight status page for this flight to view local times or setup timezone preferences in your user account.

Time Position Orientation Groundspeed Altitude Reporting Facility
EDT Latitude Longitude Course Direction KTS MPH feet Rate Location/Type
Thu 12:40:38 PM 40.6333 -74.2000 321° Northwest 171 197 2,100  Level New York TRACON
Thu 12:42:33 PM 40.7053 -74.2778 321° Northwest 188 216 5,400 1,773 Climbing New York Center
Thu 12:43:34 PM 40.7439 -74.3100 328° Northwest 181 208 7,300 1,835 Climbing New York Center
Thu 12:44:34 PM 40.7953 -74.3344 340° North 180 207 9,100 1,587 Climbing New York Center
Thu 12:45:35 PM 40.8425 -74.3561 341° North 191 220 10,500 1,350 Climbing New York Center
Thu 12:46:34 PM 40.9003 -74.3783 344° North 191 220 11,800 756 Climbing New York Center
Thu 12:47:34 PM 40.9539 -74.4006 343° North 203 234 12,000 595 Climbing New York Center
Thu 12:48:35 PM 41.0194 -74.4286 342° North 224 258 13,000 950 Climbing New York Center
Thu 12:49:34 PM 41.0750 -74.4511 343° North 230 265 13,900 1,008 Climbing New York Center
Thu 12:50:34 PM 41.1389 -74.4792 342° North 219 252 15,000 545 Climbing New York Center
Thu 12:51:35 PM 41.1942 -74.5017 343° North 226 260 15,000 555 Level New York Center
Thu 12:52:33 PM 41.2619 -74.5331 341° North 231 266 16,100 559 Climbing New York Center
Thu 12:53:33 PM 41.3236 -74.5586 343° North 243 280 16,100 -49 Level New York Center
Thu 12:54:35 PM 41.3978 -74.5875 344° North 248 285 16,000  Descending New York Center
Thu 12:55:36 PM 41.4414 -74.6564 310° West 248 285 16,100 34 Climbing New York Center
Thu 12:57:00 PM 41.4935 -74.7558 305° West  Level FlightAware Approximate
Thu 12:57:34 PM 41.5253 -74.8247 305° West 285 328 16,100  Level New York Center
Thu 12:58:35 PM 41.5719 -74.9219 303° West 285 328 16,000 -50 Descending New York Center
Thu 12:59:35 PM 41.6125 -75.0050 303° West 285 328 16,000 -50 Level New York Center
Thu 01:00:35 PM 41.6592 -75.0994 304° West 285 328 15,900  Descending New York Center
Thu 01:01:33 PM 41.7017 -75.1883 303° West 285 328 16,000 50 Climbing New York Center
Thu 01:02:34 PM 41.7403 -75.2686 303° West 285 328 16,000 -50 Level New York Center
Thu 01:03:34 PM 41.7828 -75.3578 303° West 285 328 15,900 49 Descending New York Center
Thu 01:04:36 PM 41.8289 -75.4528 303° West 280 322 16,100 100 Climbing New York Center
Thu 01:05:34 PM 41.8711 -75.5422 302° West 285 328 16,100  Level New York Center
Thu 01:06:35 PM 41.9133 -75.6317 302° West 285 328 16,100  Level New York Center
Thu 01:07:34 PM 41.9556 -75.7183 303° West 285 328 16,100 -50 Level New York Center
Thu 01:08:35 PM 41.9978 -75.8053 303° West 285 328 16,000 -50 Descending New York Center
Thu 01:09:35 PM 42.0358 -75.8864 302° West 285 328 16,000 50 Level New York Center
Thu 01:10:34 PM 42.0781 -75.9733 303° West 285 328 16,100 50 Climbing New York Center
Thu 01:11:34 PM 42.1219 -76.0608 304° West 285 328 16,100 -50 Level New York Center
Thu 01:12:34 PM 42.1731 -76.1319 314° West 278 320 16,000 -347 Descending New York Center
Thu 01:13:35 PM 42.2461 -76.1267 North 241 277 15,400 -595 Descending New York Center
Thu 01:14:35 PM 42.3233 -76.1217 North 248 285 14,800 -1,150 Descending New York Center
Thu 01:15:35 PM 42.4056 -76.1128 North 271 312 13,100 -1,500 Descending Boston Center
Thu 01:16:23 PM 42.4683 -76.1081 North 264 304 12,100 -1,165 Descending Boston Center
Thu 01:17:18 PM 42.5247 -76.1000 North 255 293 11,100 -835 Descending Boston Center
Thu 01:18:18 PM 42.6025 -76.0878 North 255 293 10,500 -793 Descending Boston Center
Thu 01:19:19 PM 42.6733 -76.0833 North 258 297 9,500 -1,086 Descending Boston Center
Thu 01:20:14 PM 42.7417 -76.0986 351° North 270 311 8,400 -1,200 Descending Boston Center
Thu 01:21:14 PM 42.8161 -76.1200 348° North 273 314 7,200 -1,134 Descending Boston Center
Thu 01:22:21 PM 42.8906 -76.1358 351° North 239 275 6,000 -1,031 Descending Boston Center
Thu 01:23:22 PM 42.9486 -76.1478 351° North 216 249 5,000 -991 Descending Boston Center
Thu 01:24:16 PM 43.0044 -76.1597 351° North 218 251 4,100 -942 Descending Boston Center
Thu 01:25:23 PM 43.0667 -76.1692 354° North 198 228 3,100 -1,286 Descending Boston Center
Thu 01:26:36 PM 43.1069 -76.1547 15° North 110 127 1,100 -1,644 Descending Boston Center
Thu 01:28:00 PM 43.1000 -76.1000 124° Southeast  Level FlightAware Approximate
Thu 01:35:00 PM 43.1112 -76.1063 124° Southeast  Level Estimated
Thu 01:36:00 PM 43.1112 -76.1063 124° Southeast  Level Estimated
Thu 01:37:00 PM 43.1112 -76.1063 124° Southeast  Level Estimated
Thu 01:38:00 PM 43.1112 -76.1063 124° Southeast  Level Estimated
Thu 01:39:00 PM 43.1112 -76.1063 124° Southeast  Level Estimated
Thu 01:40:00 PM 43.1112 -76.1063 124° Southeast  Level Estimated
Thu 01:41:00 PM 43.1112 -76.1063 124° Southeast  Level Estimated
Thu 01:42:00 PM 43.1112 -76.1063 124° Southeast  Level Estimated

Login

Don't have an account? Register now (free) for customized features, flight alerts, and more!